Time;durP1;ratioP1;P1;durP2;ratioP2;P2;SDS_P1;SDS_P2;PMS_P1;PMS_P2;Temp;Humidity;BMP_temperature;BMP_pressure;BME280_temperature;BME280_humidity;BME280_pressure;Samples;Min_cycle;Max_cycle;Signal;HPM_P1;HPM_P2
2021/03/25 00:01:13;;;;;;;;;;;;;;;11.92;49.07;101332.97;4957746;28;7651;-82
2021/03/25 00:03:39;;;;;;;;;;;;;;;11.86;49.29;101337.19;4987626;28;7053;-82
2021/03/25 00:06:05;;;;;;;;;;;;;;;11.80;49.14;101337.00;4997983;28;8381;-82
2021/03/25 00:08:30;;;;;;;;;;;;;;;11.77;49.30;101331.69;5016349;28;8264;-82
2021/03/25 00:10:56;;;;;;;;;;;;;;;11.71;49.24;101335.84;5006714;28;11600;-82
2021/03/25 00:13:21;;;;;;;;;;;;;;;11.65;49.81;101333.97;5003197;28;7232;-82
2021/03/25 00:15:47;;;;;;;;;;;;;;;11.59;49.47;101332.03;5021913;28;7301;-82
2021/03/25 00:18:13;;;;;;;;;;;;;;;11.58;49.86;101332.00;4998904;28;6791;-82
2021/03/25 00:20:38;;;;;;;;;;;;;;;11.53;49.63;101328.41;4990839;28;8596;-82
2021/03/25 00:23:04;;;;;;;;;;;;;;;11.47;50.04;101326.50;5019161;28;7560;-82
2021/03/25 00:25:34;;;;;;;;;;;;;;;11.42;49.86;101327.22;4995603;28;7287;-82
2021/03/25 00:28:00;;;;;;;;;;;;;;;11.37;50.22;101331.38;5016992;28;7200;-82
2021/03/25 00:30:28;;;;;;;;;;;;;;;11.32;49.94;101325.19;5019149;28;6909;-82
2021/03/25 00:32:54;;;;;;;;;;;;;;;11.30;50.18;101329.47;5003513;28;6816;-82
2021/03/25 00:35:19;;;;;;;;;;;;;;;11.24;50.09;101327.56;5004354;28;9436;-82
2021/03/25 00:37:46;;;;;;;;;;;;;;;11.20;49.96;101333.47;4995248;28;7571;-82
2021/03/25 00:40:12;;;;;;;;;;;;;;;11.14;49.87;101322.91;5014144;28;11401;-82
2021/03/25 00:42:38;;;;;;;;;;;;;;;11.09;50.10;101325.38;5002997;28;7114;-82
2021/03/25 00:45:06;;;;;;;;;;;;;;;11.06;50.52;101321.81;4988760;28;7490;-81
2021/03/25 00:47:31;;;;;;;;;;;;;;;11.01;50.23;101319.03;4987965;28;7071;-82
2021/03/25 00:49:57;;;;;;;;;;;;;;;10.97;50.37;101320.69;5017327;28;7200;-82
2021/03/25 00:52:22;;;;;;;;;;;;;;;10.90;50.66;101317.84;5021296;28;7110;-82
2021/03/25 00:54:48;;;;;;;;;;;;;;;10.89;50.66;101326.50;5018890;28;8359;-82
2021/03/25 00:57:13;;;;;;;;;;;;;;;10.83;50.81;101322.00;4986314;28;7191;-82
2021/03/25 00:59:39;;;;;;;;;;;;;;;10.79;50.60;101321.81;5015417;28;7205;-82
2021/03/25 01:02:05;;;;;;;;;;;;;;;10.75;50.57;101327.75;5017695;28;6851;-82
2021/03/25 01:04:30;;;;;;;;;;;;;;;10.72;50.71;101322.47;5002762;28;7330;-82
2021/03/25 01:06:56;;;;;;;;;;;;;;;10.66;50.88;101316.25;5002072;28;7021;-82
2021/03/25 01:09:23;;;;;;;;;;;;;;;10.63;51.09;101318.75;5016054;28;7758;-82
2021/03/25 01:11:49;;;;;;;;;;;;;;;10.58;50.76;101317.72;5017983;28;6823;-81
2021/03/25 01:14:15;;;;;;;;;;;;;;;10.53;51.13;101313.22;5002946;28;6800;-82
2021/03/25 01:16:43;;;;;;;;;;;;;;;10.47;51.10;101311.31;5005199;28;7273;-81
2021/03/25 01:19:18;;;;;;;;;;;;;;;10.45;50.79;101310.38;5000667;28;6784;-82
2021/03/25 01:21:44;;;;;;;;;;;;;;;10.41;51.39;101299.81;5005012;28;11094;-82
2021/03/25 01:24:09;;;;;;;;;;;;;;;10.37;51.12;101301.44;4984788;28;6788;-82
2021/03/25 01:26:35;;;;;;;;;;;;;;;10.35;51.42;101297.91;5018722;28;7215;-82
2021/03/25 01:29:01;;;;;;;;;;;;;;;10.29;51.51;101305.50;5004865;28;7074;-82
2021/03/25 01:31:27;;;;;;;;;;;;;;;10.26;51.20;101297.63;5006260;28;9682;-82
2021/03/25 01:33:53;;;;;;;;;;;;;;;10.20;50.97;101294.75;4982650;28;7258;-82
2021/03/25 01:36:18;;;;;;;;;;;;;;;10.16;51.24;101290.31;5018067;28;7953;-82
2021/03/25 01:38:44;;;;;;;;;;;;;;;10.15;51.87;101285.94;4982701;28;7234;-82
2021/03/25 01:41:09;;;;;;;;;;;;;;;10.12;51.50;101284.16;5018035;28;7242;-82
2021/03/25 01:43:37;;;;;;;;;;;;;;;10.07;51.57;101296.97;5018787;28;7326;-82
2021/03/25 01:46:26;;;;;;;;;;;;;;;10.04;51.35;101283.00;5003695;28;7577;-82
2021/03/25 01:48:57;;;;;;;;;;;;;;;10.01;51.72;101296.78;5017898;28;11007;-82
2021/03/25 01:51:41;;;;;;;;;;;;;;;9.95;51.71;101291.34;5018933;28;7210;-82
2021/03/25 01:54:12;;;;;;;;;;;;;;;9.89;51.58;101283.38;4997636;28;8889;-81
2021/03/25 01:57:02;;;;;;;;;;;;;;;9.86;51.60;101285.84;5015898;28;6996;-82
2021/03/25 01:59:58;;;;;;;;;;;;;;;9.84;51.78;101284.94;5019030;28;11467;-81
2021/03/25 02:02:33;;;;;;;;;;;;;;;9.80;51.92;101272.66;5019928;28;11185;-82
2021/03/25 02:05:04;;;;;;;;;;;;;;;9.75;52.14;101274.22;5014851;28;6945;-82
2021/03/25 02:07:48;;;;;;;;;;;;;;;9.71;52.37;101270.63;5019354;28;7538;-82
2021/03/25 02:10:22;;;;;;;;;;;;;;;9.67;52.20;101266.19;5004198;28;11057;-82
2021/03/25 02:13:00;;;;;;;;;;;;;;;9.64;52.01;101275.56;5022566;28;13712;-82
2021/03/25 02:15:49;;;;;;;;;;;;;;;9.61;52.30;101278.03;5001487;28;11231;-82
2021/03/25 02:18:16;;;;;;;;;;;;;;;9.56;52.24;101274.41;5019648;28;11435;-82
2021/03/25 02:21:12;;;;;;;;;;;;;;;9.54;52.18;101266.56;5009759;28;6988;-82
2021/03/25 02:23:47;;;;;;;;;;;;;;;9.51;52.53;101268.16;5019002;28;11191;-82
2021/03/25 02:26:47;;;;;;;;;;;;;;;9.48;52.44;101268.06;5019474;28;8501;-82
2021/03/25 02:29:33;;;;;;;;;;;;;;;9.43;52.81;101266.19;4990296;28;11403;-82
2021/03/25 02:32:05;;;;;;;;;;;;;;;9.41;52.63;101264.34;5019997;28;11079;-82
2021/03/25 02:34:33;;;;;;;;;;;;;;;9.36;52.36;101274.56;4988048;28;7394;-82
2021/03/25 02:37:03;;;;;;;;;;;;;;;9.32;52.87;101264.03;4983742;28;7182;-82
2021/03/25 02:39:49;;;;;;;;;;;;;;;9.30;52.66;101263.97;4993501;28;8442;-82
2021/03/25 02:42:16;;;;;;;;;;;;;;;9.26;52.76;101266.41;4986187;28;11226;-82
2021/03/25 02:45:04;;;;;;;;;;;;;;;9.21;52.76;101266.25;5005938;28;7613;-82
2021/03/25 02:47:30;;;;;;;;;;;;;;;9.20;52.81;101255.78;5007057;28;11284;-82
2021/03/25 02:49:55;;;;;;;;;;;;;;;9.18;52.66;101257.44;4988267;28;7314;-82
2021/03/25 02:52:30;;;;;;;;;;;;;;;9.14;53.16;101253.88;5019776;28;8324;-82
2021/03/25 02:54:57;;;;;;;;;;;;;;;9.10;53.13;101258.06;5001812;28;8628;-82
2021/03/25 02:57:30;;;;;;;;;;;;;;;9.07;52.70;101249.31;4989192;28;6959;-82
2021/03/25 02:59:57;;;;;;;;;;;;;;;9.05;52.69;101249.25;4994882;28;7214;-82
2021/03/25 03:02:34;;;;;;;;;;;;;;;9.00;52.79;101244.69;5004323;28;7458;-82
2021/03/25 03:05:07;;;;;;;;;;;;;;;8.97;53.19;101242.00;4991740;28;7002;-82
2021/03/25 03:07:42;;;;;;;;;;;;;;;8.94;53.09;101239.28;4971215;28;8495;-82
2021/03/25 03:10:09;;;;;;;;;;;;;;;8.90;52.70;101240.91;5003493;28;7148;-82
2021/03/25 03:12:39;;;;;;;;;;;;;;;8.88;53.31;101239.06;4990605;28;7293;-82
2021/03/25 03:15:06;;;;;;;;;;;;;;;8.84;53.19;101238.97;5001966;28;7001;-82
2021/03/25 03:17:39;;;;;;;;;;;;;;;8.82;53.03;101232.84;4986628;28;8732;-82
2021/03/25 03:20:32;;;;;;;;;;;;;;;8.79;53.39;101226.63;4989650;28;7250;-82
2021/03/25 03:22:57;;;;;;;;;;;;;;;8.75;53.30;101229.94;5004505;28;11218;-82
2021/03/25 03:25:24;;;;;;;;;;;;;;;8.71;53.64;101226.38;5006552;28;7051;-82
2021/03/25 03:27:50;;;;;;;;;;;;;;;8.69;53.20;101225.44;4986325;28;9428;-82
2021/03/25 03:30:22;;;;;;;;;;;;;;;8.66;53.80;101224.44;5006002;28;11258;-82
2021/03/25 03:32:52;;;;;;;;;;;;;;;8.62;53.46;101222.56;5006326;28;11420;-81
2021/03/25 03:35:27;;;;;;;;;;;;;;;8.61;53.61;101220.75;5006525;28;11225;-81
2021/03/25 03:38:02;;;;;;;;;;;;;;;8.57;53.86;101222.34;4985104;28;11408;-82
2021/03/25 03:40:30;;;;;;;;;;;;;;;8.54;53.67;101224.81;4988508;28;7365;-82
2021/03/25 03:43:08;;;;;;;;;;;;;;;8.52;53.33;101227.34;4986814;28;9119;-82
2021/03/25 03:45:36;;;;;;;;;;;;;;;8.51;53.92;101232.47;5000336;28;7557;-82
2021/03/25 03:48:05;;;;;;;;;;;;;;;8.48;53.73;101229.78;4985576;28;7222;-82
2021/03/25 03:50:34;;;;;;;;;;;;;;;8.45;53.75;101227.06;4989940;28;8484;-81
2021/03/25 03:53:00;;;;;;;;;;;;;;;8.41;54.14;101228.66;5004449;28;6819;-81
2021/03/25 03:55:25;;;;;;;;;;;;;;;8.39;53.96;101227.69;4985002;28;6973;-81
2021/03/25 03:58:03;;;;;;;;;;;;;;;8.36;53.95;101229.28;5018013;28;6799;-81
2021/03/25 04:00:32;;;;;;;;;;;;;;;8.33;54.06;101229.13;5003770;28;12634;-82
2021/03/25 04:03:18;;;;;;;;;;;;;;;8.30;53.59;101224.72;5008562;28;7176;-82
2021/03/25 04:05:45;;;;;;;;;;;;;;;8.28;54.23;101230.66;4999871;28;8603;-82
2021/03/25 04:08:18;;;;;;;;;;;;;;;8.26;53.68;101225.41;4988038;28;7330;-82
2021/03/25 04:10:55;;;;;;;;;;;;;;;8.23;54.07;101231.34;4986694;28;6796;-81
2021/03/25 04:13:28;;;;;;;;;;;;;;;8.19;54.06;101221.69;4994534;28;11268;-81
2021/03/25 04:15:53;;;;;;;;;;;;;;;8.19;53.96;101220.81;4997887;28;11129;-82
2021/03/25 04:18:30;;;;;;;;;;;;;;;8.16;54.21;101226.75;4987141;28;7218;-82
2021/03/25 04:21:17;;;;;;;;;;;;;;;8.13;54.13;101226.63;5004427;28;11217;-82
2021/03/25 04:23:42;;;;;;;;;;;;;;;8.12;54.49;101230.03;5000925;28;7253;-82
2021/03/25 04:26:32;;;;;;;;;;;;;;;8.09;54.58;101227.31;5001490;28;8271;-82
2021/03/25 04:29:04;;;;;;;;;;;;;;;8.06;54.35;101224.63;5020558;28;11189;-82
2021/03/25 04:31:30;;;;;;;;;;;;;;;8.03;54.67;101218.44;5015803;28;7197;-82
2021/03/25 04:33:56;;;;;;;;;;;;;;;8.00;54.46;101216.59;5002930;28;6839;-82
2021/03/25 04:36:22;;;;;;;;;;;;;;;7.99;54.80;101220.00;4971987;28;8387;-82
2021/03/25 04:38:47;;;;;;;;;;;;;;;7.96;54.86;101222.47;4984043;28;8213;-82
2021/03/25 04:41:13;;;;;;;;;;;;;;;7.95;54.77;101223.28;4984826;28;7249;-82
2021/03/25 04:43:39;;;;;;;;;;;;;;;7.91;55.35;101224.84;5005022;28;6875;-81
2021/03/25 04:46:26;;;;;;;;;;;;;;;7.90;55.09;101227.38;4987398;28;7484;-82
2021/03/25 04:48:51;;;;;;;;;;;;;;;7.89;54.62;101230.78;4992005;28;12454;-81
2021/03/25 04:51:19;;;;;;;;;;;;;;;7.89;54.49;101230.78;5002779;28;7210;-81
2021/03/25 04:53:44;;;;;;;;;;;;;;;7.85;55.00;101232.38;5015399;28;7252;-81
2021/03/25 04:56:12;;;;;;;;;;;;;;;7.86;54.80;101231.56;5010538;28;7246;-81
2021/03/25 04:58:44;;;;;;;;;;;;;;;7.83;55.21;101235.72;5021743;28;7187;-81
2021/03/25 05:01:14;;;;;;;;;;;;;;;7.84;54.96;101243.53;5001045;28;7332;-81
2021/03/25 05:03:40;;;;;;;;;;;;;;;7.82;55.27;101247.75;4991498;28;7922;-81
2021/03/25 05:06:06;;;;;;;;;;;;;;;7.81;55.12;101243.41;4979727;28;7203;-80
2021/03/25 05:08:32;;;;;;;;;;;;;;;7.89;55.02;101248.91;4988489;28;6955;-77
2021/03/25 05:10:59;;;;;;;;;;;;;;;7.91;54.95;101252.41;4996387;28;6795;-77
2021/03/25 05:13:38;;;;;;;;;;;;;;;7.92;54.95;101251.59;5003330;28;7348;-74
2021/03/25 05:16:33;;;;;;;;;;;;;;;7.94;54.73;101261.19;5012611;28;7046;-75
2021/03/25 05:19:10;;;;;;;;;;;;;;;7.98;54.73;101267.38;5000418;28;11306;-75
2021/03/25 05:21:57;;;;;;;;;;;;;;;7.99;54.72;101258.78;4996389;28;7344;-74
2021/03/25 05:24:51;;;;;;;;;;;;;;;8.00;54.46;101257.09;5005659;28;12480;-75
2021/03/25 05:27:21;;;;;;;;;;;;;;;8.02;54.70;101252.88;4969476;28;11693;-81
2021/03/25 05:29:47;;;;;;;;;;;;;;;8.00;54.76;101255.38;4997174;28;6803;-80
2021/03/25 05:32:14;;;;;;;;;;;;;;;7.99;54.99;101261.38;4981751;28;7273;-79
2021/03/25 05:34:40;;;;;;;;;;;;;;;8.03;54.42;101260.72;4979546;28;6808;-80
2021/03/25 05:37:06;;;;;;;;;;;;;;;8.05;54.72;101259.06;4995825;28;6814;-79
2021/03/25 05:39:31;;;;;;;;;;;;;;;8.08;54.69;101259.19;5003653;28;8767;-79
2021/03/25 05:42:14;;;;;;;;;;;;;;;8.10;54.55;101267.00;4994781;28;7123;-75
2021/03/25 05:44:58;;;;;;;;;;;;;;;8.12;54.60;101273.13;4998224;28;7154;-76
2021/03/25 05:47:46;;;;;;;;;;;;;;;8.15;54.69;101281.00;5023199;28;12618;-76
2021/03/25 05:50:33;;;;;;;;;;;;;;;8.18;54.41;101287.19;5014091;28;11492;-77
2021/03/25 05:53:27;;;;;;;;;;;;;;;8.20;54.37;101279.47;4995935;28;11647;-79
2021/03/25 05:56:00;;;;;;;;;;;;;;;8.21;54.69;101287.34;5000977;28;11479;-80
2021/03/25 05:59:04;;;;;;;;;;;;;;;8.25;54.17;101275.41;4994610;28;11018;-79
2021/03/25 06:01:45;;;;;;;;;;;;;;;8.21;54.55;101286.47;5018725;28;13609;-80
2021/03/25 06:04:43;;;;;;;;;;;;;;;8.28;54.20;101279.81;5020689;28;6972;-81
2021/03/25 06:07:15;;;;;;;;;;;;;;;8.34;54.27;101283.56;4987554;28;11184;-80
2021/03/25 06:10:05;;;;;;;;;;;;;;;8.38;53.93;101280.28;5019538;28;7047;-80
2021/03/25 06:13:01;;;;;;;;;;;;;;;8.41;54.10;101288.19;5017722;28;13064;-80
2021/03/25 06:15:55;;;;;;;;;;;;;;;8.41;54.17;101303.72;5008806;28;12763;-83
2021/03/25 06:18:38;;;;;;;;;;;;;;;8.49;54.04;101294.53;5003419;28;11185;-80
2021/03/25 06:21:26;;;;;;;;;;;;;;;8.51;54.14;101298.06;5002922;28;12525;-81
2021/03/25 06:24:09;;;;;;;;;;;;;;;8.57;54.04;101301.72;5006198;28;7214;-81
2021/03/25 06:27:00;;;;;;;;;;;;;;;8.61;53.70;101303.59;4990646;28;10972;-81
2021/03/25 06:29:28;;;;;;;;;;;;;;;8.69;53.91;101312.56;4999898;28;12734;-80
2021/03/25 06:32:04;;;;;;;;;;;;;;;8.75;53.51;101312.81;4993837;28;13154;-80
2021/03/25 06:35:08;;;;;;;;;;;;;;;8.80;53.54;101317.34;4993482;28;11203;-79
2021/03/25 06:37:39;;;;;;;;;;;;;;;8.87;53.26;101315.88;4947391;28;11224;-80
2021/03/25 06:40:06;;;;;;;;;;;;;;;8.98;53.33;101321.47;4974741;28;6995;-81
2021/03/25 06:42:39;;;;;;;;;;;;;;;9.06;53.15;101328.72;4961785;28;6963;-80
2021/03/25 06:45:12;;;;;;;;;;;;;;;9.09;52.68;101326.25;5002924;28;7347;-83
2021/03/25 06:48:00;;;;;;;;;;;;;;;9.16;52.63;101329.94;5005069;28;7238;-80
2021/03/25 06:50:30;;;;;;;;;;;;;;;9.17;52.94;101329.13;4994024;28;11159;-78
2021/03/25 06:53:00;;;;;;;;;;;;;;;9.24;52.73;101333.75;4999144;28;11344;-79
2021/03/25 06:55:27;;;;;;;;;;;;;;;9.25;52.72;101338.09;4983072;28;11237;-76
2021/03/25 06:58:04;;;;;;;;;;;;;;;9.29;52.66;101342.56;4999219;28;6941;-75
2021/03/25 07:00:33;;;;;;;;;;;;;;;9.35;52.65;101340.19;5004317;28;11300;-75
2021/03/25 07:02:58;;;;;;;;;;;;;;;9.43;52.55;101348.28;4999291;28;6824;-75
2021/03/25 07:05:31;;;;;;;;;;;;;;;9.51;52.23;101338.16;4985004;28;11296;-74
2021/03/25 07:08:18;;;;;;;;;;;;;;;9.56;52.14;101334.03;5024735;28;11064;-75
2021/03/25 07:10:43;;;;;;;;;;;;;;;9.59;52.21;101344.50;4999150;28;11276;-74
2021/03/25 07:13:14;;;;;;;;;;;;;;;9.66;51.96;101341.34;4997885;28;7395;-74
2021/03/25 07:15:40;;;;;;;;;;;;;;;9.74;51.67;101342.47;5014982;28;6954;-74
2021/03/25 07:18:19;;;;;;;;;;;;;;;9.81;51.69;101343.56;4983430;28;8114;-74
2021/03/25 07:20:44;;;;;;;;;;;;;;;9.88;51.93;101346.47;5008189;28;7063;-75
2021/03/25 07:23:14;;;;;;;;;;;;;;;9.91;51.19;101353.47;5016695;28;6799;-75
2021/03/25 07:25:44;;;;;;;;;;;;;;;9.94;51.41;101359.63;4981197;28;7171;-74
2021/03/25 07:28:20;;;;;;;;;;;;;;;10.04;51.31;101361.75;5013199;28;6879;-75
2021/03/25 07:30:48;;;;;;;;;;;;;;;10.13;50.95;101363.75;4990150;28;7792;-75
2021/03/25 07:33:16;;;;;;;;;;;;;;;10.23;50.85;101372.81;5011920;28;7242;-75
2021/03/25 07:35:47;;;;;;;;;;;;;;;10.28;50.37;101373.84;4995838;28;7273;-74
2021/03/25 07:38:19;;;;;;;;;;;;;;;10.38;50.64;101378.50;4980157;28;7218;-75
2021/03/25 07:40:44;;;;;;;;;;;;;;;10.46;50.48;101382.25;4994905;28;6807;-75
2021/03/25 07:43:13;;;;;;;;;;;;;;;10.56;50.07;101379.13;4995781;28;7368;-75
2021/03/25 07:45:39;;;;;;;;;;;;;;;10.70;50.41;101376.09;4994303;28;7234;-75
2021/03/25 07:48:24;;;;;;;;;;;;;;;10.87;49.30;101380.13;4996398;28;6939;-75
2021/03/25 07:50:50;;;;;;;;;;;;;;;10.93;49.29;101377.72;5000240;28;7503;-75
2021/03/25 07:53:24;;;;;;;;;;;;;;;11.08;49.04;101379.91;5014174;28;6896;-75
2021/03/25 07:55:50;;;;;;;;;;;;;;;11.15;49.36;101377.53;4999089;28;6884;-75
2021/03/25 07:58:17;;;;;;;;;;;;;;;11.30;48.54;101379.75;4987746;28;7143;-75
2021/03/25 08:00:43;;;;;;;;;;;;;;;11.37;49.10;101375.59;5014820;28;7002;-75
2021/03/25 08:03:19;;;;;;;;;;;;;;;11.49;48.62;101370.78;4993715;28;6851;-75
2021/03/25 08:05:46;;;;;;;;;;;;;;;11.62;48.44;101380.72;4999001;28;7202;-74
2021/03/25 08:08:30;;;;;;;;;;;;;;;11.76;48.37;101375.88;4998749;28;6864;-75
2021/03/25 08:11:19;;;;;;;;;;;;;;;11.97;47.88;101380.81;5002317;28;11113;-74
2021/03/25 08:14:15;;;;;;;;;;;;;;;12.12;46.92;101378.66;5003609;28;11186;-75
2021/03/25 08:16:49;;;;;;;;;;;;;;;12.24;47.06;101376.38;4995958;28;11110;-75
2021/03/25 08:19:20;;;;;;;;;;;;;;;12.34;46.97;101383.59;4996788;28;7226;-74
2021/03/25 08:22:25;;;;;;;;;;;;;;;12.50;46.40;101384.88;4985923;28;7276;-74
2021/03/25 08:24:54;;;;;;;;;;;;;;;12.67;46.54;101391.38;4991755;28;11190;-74
2021/03/25 08:27:54;;;;;;;;;;;;;;;12.80;45.64;101384.72;5010791;28;7063;-74
2021/03/25 08:30:34;;;;;;;;;;;;;;;13.00;45.30;101390.41;4997232;28;12339;-75
2021/03/25 08:33:18;;;;;;;;;;;;;;;13.13;45.64;101383.78;4996631;28;11183;-76
2021/03/25 08:35:47;;;;;;;;;;;;;;;13.28;45.09;101376.34;5012876;28;12511;-75
2021/03/25 08:38:40;;;;;;;;;;;;;;;13.40;44.89;101385.28;4994068;28;7122;-74
2021/03/25 08:41:08;;;;;;;;;;;;;;;13.54;44.37;101380.38;5011381;28;11453;-75
2021/03/25 08:43:38;;;;;;;;;;;;;;;13.64;44.56;101379.75;4999517;28;6938;-74
2021/03/25 08:46:08;;;;;;;;;;;;;;;13.78;44.71;101392.16;4995452;28;7952;-74
2021/03/25 08:48:57;;;;;;;;;;;;;;;13.91;43.94;101388.97;5001219;28;6804;-74
2021/03/25 08:51:33;;;;;;;;;;;;;;;14.04;43.71;101385.75;5022807;28;7165;-74
2021/03/25 08:54:10;;;;;;;;;;;;;;;14.14;43.91;101392.91;4989272;28;11748;-74
2021/03/25 08:56:48;;;;;;;;;;;;;;;14.25;43.50;101391.38;5000050;28;11192;-73
2021/03/25 08:59:14;;;;;;;;;;;;;;;14.34;43.14;101395.00;4998492;28;7393;-76
2021/03/25 09:01:56;;;;;;;;;;;;;;;14.48;43.53;101393.56;5022692;28;7202;-75
2021/03/25 09:04:22;;;;;;;;;;;;;;;14.64;42.99;101395.59;5001184;28;7194;-75
2021/03/25 09:06:49;;;;;;;;;;;;;;;14.76;42.41;101393.16;4989653;28;8523;-75
2021/03/25 09:09:30;;;;;;;;;;;;;;;15.58;49.08;101388.25;4983101;28;7169;-73
2021/03/25 09:11:59;;;;;;;;;;;;;;;16.61;47.77;101385.91;4971314;28;7227;-73
2021/03/25 09:14:25;;;;;;;;;;;;;;;17.11;47.00;101381.97;4992202;28;7247;-73
2021/03/25 09:16:52;;;;;;;;;;;;;;;17.21;46.97;101384.63;5014224;28;7349;-77
2021/03/25 09:19:24;;;;;;;;;;;;;;;16.88;47.85;101385.31;5018172;28;7235;-75
2021/03/25 09:21:55;;;;;;;;;;;;;;;16.62;48.02;101376.31;4983021;28;7115;-75
2021/03/25 09:24:20;;;;;;;;;;;;;;;16.54;48.37;101377.97;4989486;28;7246;-76
2021/03/25 09:26:53;;;;;;;;;;;;;;;16.52;48.06;101372.72;5013748;28;7285;-75
2021/03/25 09:29:21;;;;;;;;;;;;;;;16.52;48.09;101377.97;4998608;28;7072;-76
2021/03/25 09:31:55;;;;;;;;;;;;;;;16.61;47.76;101380.66;4996353;28;7209;-75
2021/03/25 09:34:23;;;;;;;;;;;;;;;16.72;47.11;101376.44;5015215;28;7461;-74
2021/03/25 09:36:49;;;;;;;;;;;;;;;16.83;47.04;101379.16;5013197;28;7385;-76
2021/03/25 09:39:27;;;;;;;;;;;;;;;16.90;46.45;101374.81;5016412;28;6872;-76
2021/03/25 09:41:52;;;;;;;;;;;;;;;16.96;46.51;101380.09;4996254;28;6942;-76
2021/03/25 09:44:29;;;;;;;;;;;;;;;17.05;45.92;101385.44;4989822;28;6987;-75
2021/03/25 09:46:55;;;;;;;;;;;;;;;17.17;45.42;101380.25;5023977;28;7349;-74
2021/03/25 09:49:32;;;;;;;;;;;;;;;17.29;44.86;101388.22;5013376;28;7662;-75
2021/03/25 09:52:11;;;;;;;;;;;;;;;17.37;45.01;101385.63;5014395;28;6835;-76
2021/03/25 09:54:40;;;;;;;;;;;;;;;17.56;44.42;101397.09;5014586;28;11034;-75
2021/03/25 09:57:30;;;;;;;;;;;;;;;17.68;43.93;101393.69;4998208;28;7313;-75
2021/03/25 10:00:04;;;;;;;;;;;;;;;17.84;43.16;101399.03;5013353;28;7145;-76
2021/03/25 10:03:06;;;;;;;;;;;;;;;18.02;43.26;101394.66;5011592;28;11200;-76
2021/03/25 10:05:32;;;;;;;;;;;;;;;18.16;42.50;101385.09;4995749;28;11137;-76
2021/03/25 10:08:01;;;;;;;;;;;;;;;18.32;42.39;101392.13;4999961;28;7770;-76
2021/03/25 10:10:39;;;;;;;;;;;;;;;18.43;41.86;101385.16;5011363;28;7223;-77
2021/03/25 10:13:05;;;;;;;;;;;;;;;18.61;41.74;101375.47;5019569;28;11032;-75
2021/03/25 10:15:31;;;;;;;;;;;;;;;18.73;41.22;101378.16;5013936;28;8339;-75
2021/03/25 10:18:04;;;;;;;;;;;;;;;18.84;41.24;101379.06;5012656;28;7340;-75
2021/03/25 10:20:45;;;;;;;;;;;;;;;18.90;40.91;101371.13;4981682;28;11276;-75
2021/03/25 10:23:27;;;;;;;;;;;;;;;18.94;41.01;101379.91;5014370;28;11493;-76
2021/03/25 10:26:02;;;;;;;;;;;;;;;19.10;40.40;101382.53;5012373;28;7404;-76
2021/03/25 10:28:28;;;;;;;;;;;;;;;19.11;40.48;101373.75;4996570;28;6816;-76
2021/03/25 10:31:02;;;;;;;;;;;;;;;19.13;40.41;101371.09;4979877;28;7174;-76
2021/03/25 10:33:28;;;;;;;;;;;;;;;19.26;40.02;101370.19;4998976;28;7252;-76
2021/03/25 10:35:56;;;;;;;;;;;;;;;19.31;39.95;101368.44;4984830;28;7203;-76
2021/03/25 10:38:28;;;;;;;;;;;;;;;19.36;39.78;101357.88;5005532;28;7403;-76
2021/03/25 10:41:01;;;;;;;;;;;;;;;19.50;39.49;101355.19;5024534;28;7516;-76
2021/03/25 10:43:31;;;;;;;;;;;;;;;19.62;39.39;101356.06;4990224;28;8183;-75
2021/03/25 10:45:59;;;;;;;;;;;;;;;19.71;39.46;101356.00;5023922;28;6812;-76
2021/03/25 10:48:43;;;;;;;;;;;;;;;19.85;38.93;101344.53;5021317;28;8807;-75
2021/03/25 10:51:12;;;;;;;;;;;;;;;20.00;38.78;101345.31;5002721;28;11327;-76
2021/03/25 10:53:51;;;;;;;;;;;;;;;20.11;37.87;101352.28;5019737;28;7063;-77
2021/03/25 10:56:27;;;;;;;;;;;;;;;20.32;37.83;101342.47;4987037;28;7245;-76
2021/03/25 10:59:09;;;;;;;;;;;;;;;20.52;37.50;101338.81;5004143;28;6803;-76
2021/03/25 11:01:35;;;;;;;;;;;;;;;20.63;37.49;101329.94;5019112;28;7060;-76
2021/03/25 11:04:00;;;;;;;;;;;;;;;20.83;36.92;101329.75;4950408;28;8574;-76
2021/03/25 11:06:33;;;;;;;;;;;;;;;21.04;36.73;101343.63;5000375;28;6807;-76
2021/03/25 11:09:10;;;;;;;;;;;;;;;21.23;36.39;101332.84;4979817;28;7246;-75
2021/03/25 11:11:37;;;;;;;;;;;;;;;21.42;36.09;101335.28;5015963;28;11033;-75
2021/03/25 11:14:20;;;;;;;;;;;;;;;21.61;35.22;101331.53;5002810;28;7266;-76
2021/03/25 11:16:54;;;;;;;;;;;;;;;21.88;35.26;101338.22;4974556;28;13166;-76
2021/03/25 11:19:20;;;;;;;;;;;;;;;22.07;34.68;101333.59;5000813;28;7079;-76
2021/03/25 11:21:45;;;;;;;;;;;;;;;22.15;34.70;101332.56;4981983;28;6978;-76
2021/03/25 11:24:24;;;;;;;;;;;;;;;22.34;34.30;101335.78;4979652;28;6990;-76
2021/03/25 11:26:54;;;;;;;;;;;;;;;22.53;33.99;101323.13;4996062;28;7247;-76
2021/03/25 11:29:19;;;;;;;;;;;;;;;22.71;33.61;101330.75;4980558;28;7300;-76
2021/03/25 11:31:45;;;;;;;;;;;;;;;22.92;33.67;101318.94;4980810;28;7211;-76
2021/03/25 11:34:22;;;;;;;;;;;;;;;23.06;33.01;101322.19;4992120;28;7115;-76
2021/03/25 11:36:48;;;;;;;;;;;;;;;23.10;33.33;101328.31;5026278;28;7321;-76
2021/03/25 11:39:22;;;;;;;;;;;;;;;23.23;33.25;101321.00;4995859;28;6788;-73
2021/03/25 11:41:50;;;;;;;;;;;;;;;23.36;32.67;101323.34;4979027;28;7578;-74
2021/03/25 11:44:43;;;;;;;;;;;;;;;23.49;32.57;101315.16;5012056;28;7411;-73
2021/03/25 11:47:35;;;;;;;;;;;;;;;23.67;32.34;101323.63;5018753;28;11424;-73
2021/03/25 11:50:30;;;;;;;;;;;;;;;23.83;31.89;101313.56;5011815;28;7248;-74
2021/03/25 11:52:57;;;;;;;;;;;;;;;23.98;31.28;101323.81;4971881;28;13206;-74
2021/03/25 11:55:35;;;;;;;;;;;;;;;24.11;31.34;101307.59;5015761;28;7488;-73
2021/03/25 11:58:10;;;;;;;;;;;;;;;24.25;31.11;101311.69;5017018;28;6788;-73
2021/03/25 12:00:36;;;;;;;;;;;;;;;24.36;31.19;101319.41;5002125;28;11160;-74
2021/03/25 12:03:14;;;;;;;;;;;;;;;24.50;30.76;101308.44;4984317;28;11319;-73
2021/03/25 12:05:42;;;;;;;;;;;;;;;24.52;30.86;101310.16;4995342;28;11155;-73
2021/03/25 12:08:27;;;;;;;;;;;;;;;24.58;30.74;101309.97;4981119;28;7437;-74
2021/03/25 12:11:05;;;;;;;;;;;;;;;24.77;30.97;101309.50;5016605;28;7010;-73
2021/03/25 12:13:31;;;;;;;;;;;;;;;24.97;31.22;101306.31;4998819;28;7437;-73
2021/03/25 12:15:56;;;;;;;;;;;;;;;25.20;30.94;101298.59;4997169;28;7250;-74
2021/03/25 12:18:34;;;;;;;;;;;;;;;25.30;30.75;101309.84;5011190;28;7245;-74
2021/03/25 12:21:03;;;;;;;;;;;;;;;25.38;30.24;101303.38;4996610;28;6848;-74
2021/03/25 12:23:30;;;;;;;;;;;;;;;25.48;30.77;101296.88;4997752;28;6812;-75
2021/03/25 12:25:59;;;;;;;;;;;;;;;25.61;30.58;101299.16;5003633;28;7057;-74
2021/03/25 12:28:24;;;;;;;;;;;;;;;25.58;30.77;101299.25;4998806;28;8142;-74
2021/03/25 12:30:50;;;;;;;;;;;;;;;25.63;31.00;101292.91;4997743;28;6830;-75
2021/03/25 12:33:33;;;;;;;;;;;;;;;25.82;30.10;101285.22;5012474;28;7518;-75
2021/03/25 12:35:59;;;;;;;;;;;;;;;26.04;30.77;101277.47;5010849;28;6995;-73
2021/03/25 12:38:24;;;;;;;;;;;;;;;26.19;30.59;101278.72;4998901;28;7918;-74
2021/03/25 12:40:50;;;;;;;;;;;;;;;25.99;29.95;101274.03;4981921;28;6963;-74
2021/03/25 12:43:23;;;;;;;;;;;;;;;25.91;30.16;101276.09;5001242;28;7387;-74
2021/03/25 12:45:54;;;;;;;;;;;;;;;26.00;30.29;101273.13;5011372;28;6887;-75
2021/03/25 12:48:21;;;;;;;;;;;;;;;25.83;30.18;101278.13;4980167;28;7585;-76
2021/03/25 12:50:47;;;;;;;;;;;;;;;26.16;30.32;101281.50;5001909;28;7471;-74
2021/03/25 12:53:22;;;;;;;;;;;;;;;26.21;30.29;101284.88;4998942;28;6952;-76
2021/03/25 12:55:48;;;;;;;;;;;;;;;26.58;28.88;101279.19;4992940;28;7763;-73
2021/03/25 12:58:17;;;;;;;;;;;;;;;26.72;28.92;101266.28;4996735;28;6848;-74
2021/03/25 13:00:43;;;;;;;;;;;;;;;26.75;28.25;101270.63;4987773;28;7445;-75
2021/03/25 13:03:08;;;;;;;;;;;;;;;27.08;28.14;101276.56;5005771;28;6801;-74
2021/03/25 13:05:34;;;;;;;;;;;;;;;27.48;27.17;101273.28;5014809;28;6812;-75
2021/03/25 13:07:59;;;;;;;;;;;;;;;27.91;26.77;101271.59;4998060;28;8239;-74
2021/03/25 13:10:30;;;;;;;;;;;;;;;28.08;27.10;101274.47;4997433;28;8469;-75
2021/03/25 13:12:59;;;;;;;;;;;;;;;28.28;26.64;101269.19;4996510;28;7274;-75
2021/03/25 13:15:25;;;;;;;;;;;;;;;28.19;26.54;101273.06;4986170;28;7321;-75
2021/03/25 13:17:51;;;;;;;;;;;;;;;28.16;26.46;101272.31;4997356;28;6951;-75